sensor_id;sensor_type;location;lat;lon;timestamp;P1;durP1;ratioP1;P2;durP2;ratioP2
26325;SDS011;14032;52.510;7.342;2023-09-30T00:01:09;20.02;;;4.60;;
26325;SDS011;14032;52.510;7.342;2023-09-30T00:03:39;17.85;;;4.82;;
26325;SDS011;14032;52.510;7.342;2023-09-30T00:06:05;28.13;;;5.85;;
26325;SDS011;14032;52.510;7.342;2023-09-30T00:08:30;15.93;;;4.50;;
26325;SDS011;14032;52.510;7.342;2023-09-30T00:10:56;12.15;;;4.28;;
26325;SDS011;14032;52.510;7.342;2023-09-30T00:13:21;22.77;;;5.22;;
26325;SDS011;14032;52.510;7.342;2023-09-30T00:15:47;19.48;;;4.75;;
26325;SDS011;14032;52.510;7.342;2023-09-30T00:18:13;23.35;;;4.28;;
26325;SDS011;14032;52.510;7.342;2023-09-30T00:20:39;16.77;;;5.45;;
26325;SDS011;14032;52.510;7.342;2023-09-30T00:23:04;23.02;;;5.05;;
26325;SDS011;14032;52.510;7.342;2023-09-30T00:25:31;17.75;;;4.75;;
26325;SDS011;14032;52.510;7.342;2023-09-30T00:27:57;17.27;;;4.10;;
26325;SDS011;14032;52.510;7.342;2023-09-30T00:30:23;17.88;;;4.82;;
26325;SDS011;14032;52.510;7.342;2023-09-30T00:32:48;20.55;;;5.60;;
26325;SDS011;14032;52.510;7.342;2023-09-30T00:35:14;18.33;;;4.93;;
26325;SDS011;14032;52.510;7.342;2023-09-30T00:37:41;18.98;;;5.50;;
26325;SDS011;14032;52.510;7.342;2023-09-30T00:40:07;20.58;;;4.47;;
26325;SDS011;14032;52.510;7.342;2023-09-30T00:42:40;19.67;;;5.72;;
26325;SDS011;14032;52.510;7.342;2023-09-30T00:45:06;18.25;;;4.78;;
26325;SDS011;14032;52.510;7.342;2023-09-30T00:47:34;24.05;;;5.68;;
26325;SDS011;14032;52.510;7.342;2023-09-30T00:50:01;22.83;;;5.00;;
26325;SDS011;14032;52.510;7.342;2023-09-30T00:52:28;19.23;;;4.82;;
26325;SDS011;14032;52.510;7.342;2023-09-30T00:54:56;18.05;;;4.38;;
26325;SDS011;14032;52.510;7.342;2023-09-30T00:57:22;17.98;;;5.30;;
26325;SDS011;14032;52.510;7.342;2023-09-30T00:59:50;24.75;;;5.28;;
26325;SDS011;14032;52.510;7.342;2023-09-30T01:02:16;21.63;;;5.35;;
26325;SDS011;14032;52.510;7.342;2023-09-30T01:04:43;16.67;;;4.50;;
26325;SDS011;14032;52.510;7.342;2023-09-30T01:07:09;19.67;;;5.07;;
26325;SDS011;14032;52.510;7.342;2023-09-30T01:09:34;18.00;;;4.47;;
26325;SDS011;14032;52.510;7.342;2023-09-30T01:12:02;19.23;;;4.40;;
26325;SDS011;14032;52.510;7.342;2023-09-30T01:14:28;14.48;;;4.13;;
26325;SDS011;14032;52.510;7.342;2023-09-30T01:16:55;18.10;;;5.05;;
26325;SDS011;14032;52.510;7.342;2023-09-30T01:19:21;17.67;;;4.70;;
26325;SDS011;14032;52.510;7.342;2023-09-30T01:21:53;16.23;;;4.35;;
26325;SDS011;14032;52.510;7.342;2023-09-30T01:24:28;20.92;;;5.35;;
26325;SDS011;14032;52.510;7.342;2023-09-30T01:26:55;19.92;;;4.63;;
26325;SDS011;14032;52.510;7.342;2023-09-30T01:29:21;21.45;;;5.07;;
26325;SDS011;14032;52.510;7.342;2023-09-30T01:31:47;23.05;;;5.00;;
26325;SDS011;14032;52.510;7.342;2023-09-30T01:34:14;22.85;;;4.43;;
26325;SDS011;14032;52.510;7.342;2023-09-30T01:36:41;18.80;;;4.70;;
26325;SDS011;14032;52.510;7.342;2023-09-30T01:39:08;19.95;;;4.55;;
26325;SDS011;14032;52.510;7.342;2023-09-30T01:41:37;16.15;;;4.82;;
26325;SDS011;14032;52.510;7.342;2023-09-30T01:44:03;19.63;;;4.95;;
26325;SDS011;14032;52.510;7.342;2023-09-30T01:46:30;23.95;;;5.40;;
26325;SDS011;14032;52.510;7.342;2023-09-30T01:48:55;22.15;;;5.60;;
26325;SDS011;14032;52.510;7.342;2023-09-30T01:51:21;17.48;;;5.05;;
26325;SDS011;14032;52.510;7.342;2023-09-30T01:53:47;21.00;;;4.90;;
26325;SDS011;14032;52.510;7.342;2023-09-30T01:56:13;19.40;;;4.53;;
26325;SDS011;14032;52.510;7.342;2023-09-30T01:58:38;21.00;;;4.72;;
26325;SDS011;14032;52.510;7.342;2023-09-30T02:01:04;21.13;;;4.82;;
26325;SDS011;14032;52.510;7.342;2023-09-30T02:03:29;15.85;;;4.50;;
26325;SDS011;14032;52.510;7.342;2023-09-30T02:05:56;21.38;;;5.00;;
26325;SDS011;14032;52.510;7.342;2023-09-30T02:08:22;17.13;;;4.28;;
26325;SDS011;14032;52.510;7.342;2023-09-30T02:10:48;16.88;;;4.82;;
26325;SDS011;14032;52.510;7.342;2023-09-30T02:13:14;16.20;;;5.53;;
26325;SDS011;14032;52.510;7.342;2023-09-30T02:15:40;20.83;;;5.97;;
26325;SDS011;14032;52.510;7.342;2023-09-30T02:18:08;19.77;;;4.65;;
26325;SDS011;14032;52.510;7.342;2023-09-30T02:20:34;18.77;;;5.05;;
26325;SDS011;14032;52.510;7.342;2023-09-30T02:23:04;20.75;;;5.25;;
26325;SDS011;14032;52.510;7.342;2023-09-30T02:25:30;17.45;;;4.72;;
26325;SDS011;14032;52.510;7.342;2023-09-30T02:27:58;26.55;;;6.20;;
26325;SDS011;14032;52.510;7.342;2023-09-30T02:30:24;18.42;;;4.30;;
26325;SDS011;14032;52.510;7.342;2023-09-30T02:32:49;18.75;;;4.78;;
26325;SDS011;14032;52.510;7.342;2023-09-30T02:35:15;19.50;;;4.65;;
26325;SDS011;14032;52.510;7.342;2023-09-30T02:37:41;16.25;;;4.57;;
26325;SDS011;14032;52.510;7.342;2023-09-30T02:40:06;23.27;;;5.07;;
26325;SDS011;14032;52.510;7.342;2023-09-30T02:42:39;14.75;;;4.70;;
26325;SDS011;14032;52.510;7.342;2023-09-30T02:45:05;15.52;;;4.60;;
26325;SDS011;14032;52.510;7.342;2023-09-30T02:47:33;20.35;;;5.20;;
26325;SDS011;14032;52.510;7.342;2023-09-30T02:49:59;22.35;;;5.50;;
26325;SDS011;14032;52.510;7.342;2023-09-30T02:52:25;17.95;;;5.00;;
26325;SDS011;14032;52.510;7.342;2023-09-30T02:54:51;17.98;;;4.60;;
26325;SDS011;14032;52.510;7.342;2023-09-30T02:57:16;17.70;;;5.30;;
26325;SDS011;14032;52.510;7.342;2023-09-30T02:59:43;18.25;;;5.10;;
26325;SDS011;14032;52.510;7.342;2023-09-30T03:02:09;19.40;;;4.50;;
26325;SDS011;14032;52.510;7.342;2023-09-30T03:04:36;17.10;;;5.03;;
26325;SDS011;14032;52.510;7.342;2023-09-30T03:07:02;16.13;;;6.13;;
26325;SDS011;14032;52.510;7.342;2023-09-30T03:09:27;20.08;;;5.03;;
26325;SDS011;14032;52.510;7.342;2023-09-30T03:11:53;17.45;;;5.53;;
26325;SDS011;14032;52.510;7.342;2023-09-30T03:14:21;16.08;;;5.05;;
26325;SDS011;14032;52.510;7.342;2023-09-30T03:16:47;19.23;;;6.03;;
26325;SDS011;14032;52.510;7.342;2023-09-30T03:19:13;23.58;;;5.65;;
26325;SDS011;14032;52.510;7.342;2023-09-30T03:21:41;19.90;;;5.28;;
26325;SDS011;14032;52.510;7.342;2023-09-30T03:24:07;15.90;;;5.22;;
26325;SDS011;14032;52.510;7.342;2023-09-30T03:26:33;18.00;;;4.78;;
26325;SDS011;14032;52.510;7.342;2023-09-30T03:29:01;17.77;;;5.63;;
26325;SDS011;14032;52.510;7.342;2023-09-30T03:31:28;23.50;;;6.30;;
26325;SDS011;14032;52.510;7.342;2023-09-30T03:33:54;29.10;;;5.70;;
26325;SDS011;14032;52.510;7.342;2023-09-30T03:36:20;19.90;;;6.43;;
26325;SDS011;14032;52.510;7.342;2023-09-30T03:38:47;17.15;;;5.78;;
26325;SDS011;14032;52.510;7.342;2023-09-30T03:41:13;17.83;;;6.80;;
26325;SDS011;14032;52.510;7.342;2023-09-30T03:43:41;19.75;;;6.53;;
26325;SDS011;14032;52.510;7.342;2023-09-30T03:46:10;24.63;;;7.00;;
26325;SDS011;14032;52.510;7.342;2023-09-30T03:48:37;18.17;;;6.22;;
26325;SDS011;14032;52.510;7.342;2023-09-30T03:51:14;24.05;;;6.45;;
26325;SDS011;14032;52.510;7.342;2023-09-30T03:56:09;17.25;;;6.15;;
26325;SDS011;14032;52.510;7.342;2023-09-30T03:58:39;26.60;;;7.15;;
26325;SDS011;14032;52.510;7.342;2023-09-30T04:01:06;21.65;;;6.88;;
26325;SDS011;14032;52.510;7.342;2023-09-30T04:03:32;24.33;;;8.30;;
26325;SDS011;14032;52.510;7.342;2023-09-30T04:05:58;22.65;;;7.57;;
26325;SDS011;14032;52.510;7.342;2023-09-30T04:08:24;25.77;;;8.15;;
26325;SDS011;14032;52.510;7.342;2023-09-30T04:10:50;21.10;;;7.40;;
26325;SDS011;14032;52.510;7.342;2023-09-30T04:13:15;21.80;;;7.85;;
26325;SDS011;14032;52.510;7.342;2023-09-30T04:15:42;24.88;;;7.35;;
26325;SDS011;14032;52.510;7.342;2023-09-30T04:18:09;23.65;;;7.20;;
26325;SDS011;14032;52.510;7.342;2023-09-30T04:20:36;18.83;;;7.68;;
26325;SDS011;14032;52.510;7.342;2023-09-30T04:23:04;17.67;;;7.90;;
26325;SDS011;14032;52.510;7.342;2023-09-30T04:25:31;21.13;;;7.40;;
26325;SDS011;14032;52.510;7.342;2023-09-30T04:27:57;23.08;;;8.07;;
26325;SDS011;14032;52.510;7.342;2023-09-30T04:30:23;27.02;;;8.95;;
26325;SDS011;14032;52.510;7.342;2023-09-30T04:32:48;21.38;;;8.52;;
26325;SDS011;14032;52.510;7.342;2023-09-30T04:35:14;21.40;;;7.72;;
26325;SDS011;14032;52.510;7.342;2023-09-30T04:37:40;26.02;;;9.05;;
26325;SDS011;14032;52.510;7.342;2023-09-30T04:40:06;24.90;;;9.02;;
26325;SDS011;14032;52.510;7.342;2023-09-30T04:42:41;22.90;;;8.18;;
26325;SDS011;14032;52.510;7.342;2023-09-30T04:45:09;20.95;;;8.38;;
26325;SDS011;14032;52.510;7.342;2023-09-30T04:47:35;27.85;;;9.07;;
26325;SDS011;14032;52.510;7.342;2023-09-30T04:50:02;19.95;;;9.38;;
26325;SDS011;14032;52.510;7.342;2023-09-30T04:52:32;23.73;;;9.43;;
26325;SDS011;14032;52.510;7.342;2023-09-30T04:54:58;27.00;;;10.07;;
26325;SDS011;14032;52.510;7.342;2023-09-30T04:57:25;25.20;;;9.13;;
26325;SDS011;14032;52.510;7.342;2023-09-30T04:59:51;25.17;;;9.13;;
26325;SDS011;14032;52.510;7.342;2023-09-30T05:02:16;24.00;;;9.98;;
26325;SDS011;14032;52.510;7.342;2023-09-30T05:04:42;22.85;;;8.90;;
26325;SDS011;14032;52.510;7.342;2023-09-30T05:07:08;24.15;;;10.23;;
26325;SDS011;14032;52.510;7.342;2023-09-30T05:09:33;20.83;;;9.35;;
26325;SDS011;14032;52.510;7.342;2023-09-30T05:11:59;22.58;;;9.32;;
26325;SDS011;14032;52.510;7.342;2023-09-30T05:14:25;23.58;;;9.93;;
26325;SDS011;14032;52.510;7.342;2023-09-30T05:16:52;24.52;;;10.05;;
26325;SDS011;14032;52.510;7.342;2023-09-30T05:19:18;25.55;;;9.88;;
26325;SDS011;14032;52.510;7.342;2023-09-30T05:21:45;21.20;;;9.85;;
26325;SDS011;14032;52.510;7.342;2023-09-30T05:24:12;25.50;;;9.45;;
26325;SDS011;14032;52.510;7.342;2023-09-30T05:26:37;27.27;;;9.98;;
26325;SDS011;14032;52.510;7.342;2023-09-30T05:29:03;25.92;;;10.27;;
26325;SDS011;14032;52.510;7.342;2023-09-30T05:31:29;24.33;;;10.35;;
26325;SDS011;14032;52.510;7.342;2023-09-30T05:33:54;24.25;;;10.27;;
26325;SDS011;14032;52.510;7.342;2023-09-30T05:36:20;21.17;;;11.05;;
26325;SDS011;14032;52.510;7.342;2023-09-30T05:38:46;26.30;;;10.57;;
26325;SDS011;14032;52.510;7.342;2023-09-30T05:41:13;23.20;;;10.23;;
26325;SDS011;14032;52.510;7.342;2023-09-30T05:43:40;26.88;;;11.10;;
26325;SDS011;14032;52.510;7.342;2023-09-30T05:46:06;25.70;;;10.88;;
26325;SDS011;14032;52.510;7.342;2023-09-30T05:48:32;22.83;;;11.38;;
26325;SDS011;14032;52.510;7.342;2023-09-30T05:50:58;27.05;;;10.85;;
26325;SDS011;14032;52.510;7.342;2023-09-30T05:53:23;21.27;;;10.48;;
26325;SDS011;14032;52.510;7.342;2023-09-30T05:55:50;25.98;;;11.15;;
26325;SDS011;14032;52.510;7.342;2023-09-30T05:58:15;28.30;;;11.40;;
26325;SDS011;14032;52.510;7.342;2023-09-30T06:00:41;28.60;;;11.20;;
26325;SDS011;14032;52.510;7.342;2023-09-30T06:03:08;30.27;;;11.88;;
26325;SDS011;14032;52.510;7.342;2023-09-30T06:05:38;26.05;;;11.35;;
26325;SDS011;14032;52.510;7.342;2023-09-30T06:08:08;29.17;;;11.38;;
26325;SDS011;14032;52.510;7.342;2023-09-30T06:10:39;22.77;;;11.35;;
26325;SDS011;14032;52.510;7.342;2023-09-30T06:13:08;24.70;;;11.98;;
26325;SDS011;14032;52.510;7.342;2023-09-30T06:15:42;24.55;;;11.80;;
26325;SDS011;14032;52.510;7.342;2023-09-30T06:18:09;27.05;;;11.88;;
26325;SDS011;14032;52.510;7.342;2023-09-30T06:20:37;29.95;;;11.52;;
26325;SDS011;14032;52.510;7.342;2023-09-30T06:23:03;32.45;;;12.35;;
26325;SDS011;14032;52.510;7.342;2023-09-30T06:25:28;27.73;;;11.77;;
26325;SDS011;14032;52.510;7.342;2023-09-30T06:27:55;29.65;;;12.02;;
26325;SDS011;14032;52.510;7.342;2023-09-30T06:30:21;25.20;;;10.73;;
26325;SDS011;14032;52.510;7.342;2023-09-30T06:32:49;26.95;;;10.77;;
26325;SDS011;14032;52.510;7.342;2023-09-30T06:35:15;23.88;;;11.43;;
26325;SDS011;14032;52.510;7.342;2023-09-30T06:37:41;26.42;;;10.65;;
26325;SDS011;14032;52.510;7.342;2023-09-30T06:40:07;29.70;;;11.23;;
26325;SDS011;14032;52.510;7.342;2023-09-30T06:42:34;21.70;;;11.15;;
26325;SDS011;14032;52.510;7.342;2023-09-30T06:45:01;22.25;;;10.48;;
26325;SDS011;14032;52.510;7.342;2023-09-30T06:47:31;24.42;;;11.20;;
26325;SDS011;14032;52.510;7.342;2023-09-30T06:49:58;27.92;;;11.77;;
26325;SDS011;14032;52.510;7.342;2023-09-30T06:52:34;20.67;;;10.45;;
26325;SDS011;14032;52.510;7.342;2023-09-30T06:55:00;23.63;;;11.88;;
26325;SDS011;14032;52.510;7.342;2023-09-30T06:57:27;22.67;;;11.57;;
26325;SDS011;14032;52.510;7.342;2023-09-30T06:59:52;27.17;;;11.80;;
26325;SDS011;14032;52.510;7.342;2023-09-30T07:02:18;21.90;;;10.82;;
26325;SDS011;14032;52.510;7.342;2023-09-30T07:04:43;30.20;;;11.93;;
26325;SDS011;14032;52.510;7.342;2023-09-30T07:07:09;26.70;;;12.05;;
26325;SDS011;14032;52.510;7.342;2023-09-30T07:09:34;31.63;;;12.88;;
26325;SDS011;14032;52.510;7.342;2023-09-30T07:12:02;23.40;;;11.93;;
26325;SDS011;14032;52.510;7.342;2023-09-30T07:14:29;28.63;;;12.82;;
26325;SDS011;14032;52.510;7.342;2023-09-30T07:16:55;21.35;;;11.57;;
26325;SDS011;14032;52.510;7.342;2023-09-30T07:19:20;31.23;;;13.20;;
26325;SDS011;14032;52.510;7.342;2023-09-30T07:21:46;31.70;;;14.18;;
26325;SDS011;14032;52.510;7.342;2023-09-30T07:24:12;28.92;;;13.35;;
26325;SDS011;14032;52.510;7.342;2023-09-30T07:26:37;30.38;;;13.63;;
26325;SDS011;14032;52.510;7.342;2023-09-30T07:29:03;29.27;;;14.05;;
26325;SDS011;14032;52.510;7.342;2023-09-30T07:31:32;29.25;;;14.23;;
26325;SDS011;14032;52.510;7.342;2023-09-30T07:34:00;30.55;;;14.27;;
26325;SDS011;14032;52.510;7.342;2023-09-30T07:36:26;32.58;;;15.02;;
26325;SDS011;14032;52.510;7.342;2023-09-30T07:38:51;33.65;;;15.63;;
26325;SDS011;14032;52.510;7.342;2023-09-30T07:41:18;31.90;;;14.55;;
26325;SDS011;14032;52.510;7.342;2023-09-30T07:43:43;31.40;;;15.85;;
26325;SDS011;14032;52.510;7.342;2023-09-30T07:46:09;28.00;;;15.13;;
26325;SDS011;14032;52.510;7.342;2023-09-30T07:48:34;30.45;;;15.82;;
26325;SDS011;14032;52.510;7.342;2023-09-30T07:51:00;28.85;;;16.02;;
26325;SDS011;14032;52.510;7.342;2023-09-30T07:53:27;28.70;;;14.90;;
26325;SDS011;14032;52.510;7.342;2023-09-30T07:55:52;34.88;;;16.23;;
26325;SDS011;14032;52.510;7.342;2023-09-30T07:58:19;30.08;;;15.60;;
26325;SDS011;14032;52.510;7.342;2023-09-30T08:00:45;26.95;;;13.88;;
26325;SDS011;14032;52.510;7.342;2023-09-30T08:03:11;29.70;;;15.50;;
26325;SDS011;14032;52.510;7.342;2023-09-30T08:08:13;32.15;;;15.75;;
26325;SDS011;14032;52.510;7.342;2023-09-30T08:10:42;36.88;;;15.35;;
26325;SDS011;14032;52.510;7.342;2023-09-30T08:13:08;33.13;;;14.93;;
26325;SDS011;14032;52.510;7.342;2023-09-30T08:15:34;31.83;;;14.18;;
26325;SDS011;14032;52.510;7.342;2023-09-30T08:18:00;28.27;;;14.13;;
26325;SDS011;14032;52.510;7.342;2023-09-30T08:20:28;25.92;;;14.48;;
26325;SDS011;14032;52.510;7.342;2023-09-30T08:22:53;27.73;;;15.10;;
26325;SDS011;14032;52.510;7.342;2023-09-30T08:25:19;29.23;;;13.70;;
26325;SDS011;14032;52.510;7.342;2023-09-30T08:27:44;25.92;;;13.02;;
26325;SDS011;14032;52.510;7.342;2023-09-30T08:30:14;29.92;;;14.45;;
26325;SDS011;14032;52.510;7.342;2023-09-30T08:32:40;26.80;;;14.02;;
26325;SDS011;14032;52.510;7.342;2023-09-30T08:35:06;20.02;;;11.88;;
26325;SDS011;14032;52.510;7.342;2023-09-30T08:37:32;27.98;;;12.07;;
26325;SDS011;14032;52.510;7.342;2023-09-30T08:39:58;25.42;;;13.52;;
26325;SDS011;14032;52.510;7.342;2023-09-30T08:42:24;27.23;;;12.68;;
26325;SDS011;14032;52.510;7.342;2023-09-30T08:44:56;23.02;;;11.75;;
26325;SDS011;14032;52.510;7.342;2023-09-30T08:47:21;27.27;;;14.00;;
26325;SDS011;14032;52.510;7.342;2023-09-30T08:49:58;24.40;;;12.93;;
26325;SDS011;14032;52.510;7.342;2023-09-30T08:52:30;23.98;;;12.10;;
26325;SDS011;14032;52.510;7.342;2023-09-30T08:54:57;21.30;;;10.48;;
26325;SDS011;14032;52.510;7.342;2023-09-30T08:57:26;25.23;;;11.35;;
26325;SDS011;14032;52.510;7.342;2023-09-30T08:59:54;23.40;;;11.25;;
26325;SDS011;14032;52.510;7.342;2023-09-30T09:02:20;23.05;;;11.70;;
26325;SDS011;14032;52.510;7.342;2023-09-30T09:04:46;26.42;;;10.95;;
26325;SDS011;14032;52.510;7.342;2023-09-30T09:07:11;23.40;;;11.20;;
26325;SDS011;14032;52.510;7.342;2023-09-30T09:09:37;24.23;;;10.27;;
26325;SDS011;14032;52.510;7.342;2023-09-30T09:12:03;20.70;;;10.75;;
26325;SDS011;14032;52.510;7.342;2023-09-30T09:14:39;19.60;;;9.30;;
26325;SDS011;14032;52.510;7.342;2023-09-30T09:17:06;24.05;;;10.18;;
26325;SDS011;14032;52.510;7.342;2023-09-30T09:19:33;21.90;;;9.80;;
26325;SDS011;14032;52.510;7.342;2023-09-30T09:22:00;22.20;;;9.95;;
26325;SDS011;14032;52.510;7.342;2023-09-30T09:24:36;23.42;;;10.38;;
26325;SDS011;14032;52.510;7.342;2023-09-30T09:27:10;23.52;;;8.80;;
26325;SDS011;14032;52.510;7.342;2023-09-30T09:29:37;18.48;;;8.52;;
26325;SDS011;14032;52.510;7.342;2023-09-30T09:32:14;18.75;;;7.75;;
26325;SDS011;14032;52.510;7.342;2023-09-30T09:34:42;17.42;;;7.43;;
26325;SDS011;14032;52.510;7.342;2023-09-30T09:37:19;22.52;;;7.63;;
26325;SDS011;14032;52.510;7.342;2023-09-30T09:39:52;19.33;;;7.13;;
26325;SDS011;14032;52.510;7.342;2023-09-30T09:45:01;14.20;;;6.32;;
26325;SDS011;14032;52.510;7.342;2023-09-30T09:47:28;14.82;;;6.72;;
26325;SDS011;14032;52.510;7.342;2023-09-30T09:49:56;13.80;;;6.63;;
26325;SDS011;14032;52.510;7.342;2023-09-30T09:52:22;14.93;;;6.38;;
26325;SDS011;14032;52.510;7.342;2023-09-30T09:54:50;17.90;;;6.20;;
26325;SDS011;14032;52.510;7.342;2023-09-30T09:57:16;15.55;;;7.65;;
26325;SDS011;14032;52.510;7.342;2023-09-30T09:59:43;16.45;;;6.47;;
26325;SDS011;14032;52.510;7.342;2023-09-30T10:02:15;18.27;;;7.57;;
26325;SDS011;14032;52.510;7.342;2023-09-30T10:04:43;12.82;;;5.63;;
26325;SDS011;14032;52.510;7.342;2023-09-30T10:07:14;13.68;;;5.43;;
26325;SDS011;14032;52.510;7.342;2023-09-30T10:09:47;15.63;;;6.75;;
26325;SDS011;14032;52.510;7.342;2023-09-30T10:12:15;13.38;;;5.22;;
26325;SDS011;14032;52.510;7.342;2023-09-30T10:14:41;14.75;;;5.50;;
26325;SDS011;14032;52.510;7.342;2023-09-30T10:17:07;13.15;;;5.55;;
26325;SDS011;14032;52.510;7.342;2023-09-30T10:19:33;12.60;;;4.40;;
26325;SDS011;14032;52.510;7.342;2023-09-30T10:24:44;11.55;;;4.47;;
26325;SDS011;14032;52.510;7.342;2023-09-30T10:35:15;11.77;;;3.28;;
26325;SDS011;14032;52.510;7.342;2023-09-30T10:37:42;11.07;;;3.20;;
26325;SDS011;14032;52.510;7.342;2023-09-30T10:40:08;11.82;;;3.95;;
26325;SDS011;14032;52.510;7.342;2023-09-30T10:42:47;12.40;;;3.67;;
26325;SDS011;14032;52.510;7.342;2023-09-30T10:50:57;11.93;;;3.40;;
26325;SDS011;14032;52.510;7.342;2023-09-30T10:53:25;12.73;;;3.28;;
26325;SDS011;14032;52.510;7.342;2023-09-30T10:55:55;10.75;;;3.28;;
26325;SDS011;14032;52.510;7.342;2023-09-30T10:58:41;10.25;;;2.85;;
26325;SDS011;14032;52.510;7.342;2023-09-30T11:01:17;9.18;;;2.97;;
26325;SDS011;14032;52.510;7.342;2023-09-30T11:03:48;8.10;;;3.20;;
26325;SDS011;14032;52.510;7.342;2023-09-30T11:06:21;9.10;;;3.03;;
26325;SDS011;14032;52.510;7.342;2023-09-30T11:08:55;10.27;;;3.00;;
26325;SDS011;14032;52.510;7.342;2023-09-30T11:11:32;9.73;;;2.95;;
26325;SDS011;14032;52.510;7.342;2023-09-30T11:14:16;11.05;;;3.55;;
26325;SDS011;14032;52.510;7.342;2023-09-30T11:16:49;10.60;;;3.28;;
26325;SDS011;14032;52.510;7.342;2023-09-30T11:19:16;10.98;;;2.92;;
26325;SDS011;14032;52.510;7.342;2023-09-30T11:21:43;13.32;;;2.95;;
26325;SDS011;14032;52.510;7.342;2023-09-30T11:24:09;9.30;;;2.55;;
26325;SDS011;14032;52.510;7.342;2023-09-30T11:26:37;10.77;;;2.17;;
26325;SDS011;14032;52.510;7.342;2023-09-30T11:29:06;8.25;;;2.90;;
26325;SDS011;14032;52.510;7.342;2023-09-30T11:31:41;11.25;;;2.80;;
26325;SDS011;14032;52.510;7.342;2023-09-30T11:34:11;6.45;;;1.95;;
26325;SDS011;14032;52.510;7.342;2023-09-30T11:36:38;9.50;;;2.22;;
26325;SDS011;14032;52.510;7.342;2023-09-30T11:39:07;10.00;;;2.80;;
26325;SDS011;14032;52.510;7.342;2023-09-30T11:41:38;9.75;;;2.63;;
26325;SDS011;14032;52.510;7.342;2023-09-30T11:49:52;9.52;;;2.35;;
26325;SDS011;14032;52.510;7.342;2023-09-30T11:52:25;9.15;;;2.70;;
26325;SDS011;14032;52.510;7.342;2023-09-30T11:54:55;6.97;;;2.20;;
26325;SDS011;14032;52.510;7.342;2023-09-30T11:57:22;7.43;;;2.25;;
26325;SDS011;14032;52.510;7.342;2023-09-30T11:59:47;10.55;;;2.45;;
26325;SDS011;14032;52.510;7.342;2023-09-30T12:02:15;10.07;;;2.53;;
26325;SDS011;14032;52.510;7.342;2023-09-30T12:04:42;6.97;;;2.70;;
26325;SDS011;14032;52.510;7.342;2023-09-30T12:07:09;6.85;;;2.10;;
26325;SDS011;14032;52.510;7.342;2023-09-30T12:09:35;6.45;;;1.80;;
26325;SDS011;14032;52.510;7.342;2023-09-30T12:12:03;5.38;;;1.70;;
26325;SDS011;14032;52.510;7.342;2023-09-30T12:14:29;7.18;;;2.10;;
26325;SDS011;14032;52.510;7.342;2023-09-30T12:16:56;17.02;;;2.08;;
26325;SDS011;14032;52.510;7.342;2023-09-30T12:19:21;10.35;;;2.67;;
26325;SDS011;14032;52.510;7.342;2023-09-30T12:21:47;7.10;;;2.13;;
26325;SDS011;14032;52.510;7.342;2023-09-30T12:24:16;7.18;;;2.60;;
26325;SDS011;14032;52.510;7.342;2023-09-30T12:26:46;10.52;;;2.13;;
26325;SDS011;14032;52.510;7.342;2023-09-30T12:29:15;6.57;;;2.20;;
26325;SDS011;14032;52.510;7.342;2023-09-30T12:31:44;8.18;;;2.67;;
26325;SDS011;14032;52.510;7.342;2023-09-30T12:34:14;11.20;;;2.72;;
26325;SDS011;14032;52.510;7.342;2023-09-30T12:36:40;10.20;;;2.47;;
26325;SDS011;14032;52.510;7.342;2023-09-30T12:39:06;12.15;;;2.72;;
26325;SDS011;14032;52.510;7.342;2023-09-30T12:41:42;7.90;;;2.50;;
26325;SDS011;14032;52.510;7.342;2023-09-30T12:44:09;5.80;;;1.63;;
26325;SDS011;14032;52.510;7.342;2023-09-30T12:46:35;7.68;;;1.70;;
26325;SDS011;14032;52.510;7.342;2023-09-30T12:49:04;5.35;;;1.80;;
26325;SDS011;14032;52.510;7.342;2023-09-30T12:51:31;6.97;;;1.90;;
26325;SDS011;14032;52.510;7.342;2023-09-30T12:53:58;5.65;;;1.92;;
26325;SDS011;14032;52.510;7.342;2023-09-30T12:56:24;7.72;;;1.85;;
26325;SDS011;14032;52.510;7.342;2023-09-30T12:58:50;6.88;;;2.08;;
26325;SDS011;14032;52.510;7.342;2023-09-30T13:01:15;10.52;;;2.58;;
26325;SDS011;14032;52.510;7.342;2023-09-30T13:03:43;7.57;;;1.90;;
26325;SDS011;14032;52.510;7.342;2023-09-30T13:06:10;4.70;;;1.70;;
26325;SDS011;14032;52.510;7.342;2023-09-30T13:08:35;7.10;;;1.90;;
26325;SDS011;14032;52.510;7.342;2023-09-30T13:11:01;6.85;;;1.95;;
26325;SDS011;14032;52.510;7.342;2023-09-30T13:13:28;5.78;;;2.05;;
26325;SDS011;14032;52.510;7.342;2023-09-30T13:15:56;10.25;;;2.15;;
26325;SDS011;14032;52.510;7.342;2023-09-30T13:18:22;8.50;;;2.10;;
26325;SDS011;14032;52.510;7.342;2023-09-30T13:20:48;4.88;;;1.70;;
26325;SDS011;14032;52.510;7.342;2023-09-30T13:23:13;8.68;;;1.90;;
26325;SDS011;14032;52.510;7.342;2023-09-30T13:25:39;11.85;;;2.28;;
26325;SDS011;14032;52.510;7.342;2023-09-30T13:28:05;7.20;;;1.92;;
26325;SDS011;14032;52.510;7.342;2023-09-30T13:30:30;9.20;;;2.70;;
26325;SDS011;14032;52.510;7.342;2023-09-30T13:32:57;9.30;;;2.70;;
26325;SDS011;14032;52.510;7.342;2023-09-30T13:35:22;10.15;;;2.67;;
26325;SDS011;14032;52.510;7.342;2023-09-30T13:37:48;6.80;;;2.20;;
26325;SDS011;14032;52.510;7.342;2023-09-30T13:40:14;7.32;;;2.10;;
26325;SDS011;14032;52.510;7.342;2023-09-30T13:42:39;8.75;;;2.38;;
26325;SDS011;14032;52.510;7.342;2023-09-30T13:45:05;9.07;;;2.53;;
26325;SDS011;14032;52.510;7.342;2023-09-30T13:47:31;9.07;;;2.58;;
26325;SDS011;14032;52.510;7.342;2023-09-30T13:49:57;10.45;;;2.00;;
26325;SDS011;14032;52.510;7.342;2023-09-30T13:52:23;9.25;;;2.60;;
26325;SDS011;14032;52.510;7.342;2023-09-30T13:54:49;10.35;;;2.15;;
26325;SDS011;14032;52.510;7.342;2023-09-30T13:57:15;9.20;;;2.47;;
26325;SDS011;14032;52.510;7.342;2023-09-30T13:59:40;11.70;;;2.63;;
26325;SDS011;14032;52.510;7.342;2023-09-30T14:02:07;8.02;;;2.38;;
26325;SDS011;14032;52.510;7.342;2023-09-30T14:04:33;9.07;;;2.30;;
26325;SDS011;14032;52.510;7.342;2023-09-30T14:07:00;6.28;;;2.40;;
26325;SDS011;14032;52.510;7.342;2023-09-30T14:09:27;8.25;;;2.20;;
26325;SDS011;14032;52.510;7.342;2023-09-30T14:11:53;9.20;;;2.28;;
26325;SDS011;14032;52.510;7.342;2023-09-30T14:14:19;8.68;;;2.53;;
26325;SDS011;14032;52.510;7.342;2023-09-30T14:16:44;6.88;;;1.98;;
26325;SDS011;14032;52.510;7.342;2023-09-30T14:19:10;9.95;;;2.67;;
26325;SDS011;14032;52.510;7.342;2023-09-30T14:21:38;11.10;;;2.60;;
26325;SDS011;14032;52.510;7.342;2023-09-30T14:24:07;8.75;;;3.10;;
26325;SDS011;14032;52.510;7.342;2023-09-30T14:26:32;13.55;;;2.90;;
26325;SDS011;14032;52.510;7.342;2023-09-30T14:28:58;10.93;;;2.20;;
26325;SDS011;14032;52.510;7.342;2023-09-30T14:31:24;7.50;;;2.75;;
26325;SDS011;14032;52.510;7.342;2023-09-30T14:33:50;7.10;;;1.88;;
26325;SDS011;14032;52.510;7.342;2023-09-30T14:36:19;10.45;;;2.30;;
26325;SDS011;14032;52.510;7.342;2023-09-30T14:38:45;7.22;;;2.20;;
26325;SDS011;14032;52.510;7.342;2023-09-30T14:41:11;12.40;;;2.85;;
26325;SDS011;14032;52.510;7.342;2023-09-30T14:43:37;10.45;;;2.28;;
26325;SDS011;14032;52.510;7.342;2023-09-30T14:46:04;9.25;;;2.80;;
26325;SDS011;14032;52.510;7.342;2023-09-30T14:48:29;7.65;;;2.33;;
26325;SDS011;14032;52.510;7.342;2023-09-30T14:50:55;7.85;;;2.60;;
26325;SDS011;14032;52.510;7.342;2023-09-30T14:53:22;7.25;;;2.42;;
26325;SDS011;14032;52.510;7.342;2023-09-30T14:55:48;8.40;;;2.30;;
26325;SDS011;14032;52.510;7.342;2023-09-30T14:58:15;11.55;;;2.67;;
26325;SDS011;14032;52.510;7.342;2023-09-30T15:00:40;6.95;;;2.30;;
26325;SDS011;14032;52.510;7.342;2023-09-30T15:03:06;12.23;;;2.08;;